Nearby METAR Reports

 

YCOM - Cooma Snowy Mtns, Australia
Distance from station: NE 158km
Updated: 26/09/2021 18:00
Clear
Clear
 Wind from ENE
Wind: ENE 20 km/h
Temperature: 7°C
Wind Chill: 4°C
Dew Point: -1°C
Humidity: 57%
Barometer: 1025 hPa
Clouds: Clear
Visibility: 10 km
2021/09/26 08:00 YCOM 260800Z AUTO 06011KT 9999 // NCD 07/M01 Q1025
YMAY - Albury Airport, Australia
Distance from station: NNW 165km
Updated: 26/09/2021 19:00
Clear
Clear
 Wind from NW
Wind: NW 6 km/h
Temperature: 12°C
Dew Point: 3°C
Humidity: 54%
Barometer: 1023 hPa
Clouds: Clear
Visibility: 10 km
2021/09/26 09:00 YMAY 260900Z AUTO 32003KT 9999 // NCD 12/03 Q1023
 
YWGT - Wangaratta Airport, Australia
Distance from station: NW 172km
Updated: 26/09/2021 19:00
Clear
Clear
 Wind from calm
Wind: Calm
Temperature: 11°C
Dew Point: 5°C
Humidity: 67%
Barometer: 1023 hPa
Clouds: Clear
Visibility: 10 km
2021/09/26 09:00 YWGT 260900Z AUTO 00000KT 9999 // NCD 11/05 Q1023
YMER - Merimbula Airport, Australia
Distance from station: ENE 192km
Updated: 26/09/2021 19:00
Clear
Clear
 Wind from NW
Wind: NW 9 km/h
Temperature: 9°C
Wind Chill: 7°C
Dew Point: 7°C
Humidity: 87%
Barometer: 1028 hPa
Clouds: Clear
Visibility: 10 km
2021/09/26 09:00 YMER 260900Z AUTO 32005KT 9999 // NCD 09/07 Q1028